Time;durP1;ratioP1;P1;durP2;ratioP2;P2;SDS_P1;SDS_P2;PMS_P1;PMS_P2;Temp;Humidity;BMP_temperature;BMP_pressure;BME280_temperature;BME280_humidity;BME280_pressure;Samples;Min_cycle;Max_cycle;Signal;HPM_P1;HPM_P2
2021/03/16 00:02:17;;;;;;;28.40;10.73;;;5.20;99.90;;;;;;5113293;28;20244;-66
2021/03/16 00:04:43;;;;;;;32.53;13.40;;;5.20;99.90;;;;;;5111040;28;20207;-66
2021/03/16 00:07:08;;;;;;;32.40;12.10;;;5.20;99.90;;;;;;5113233;28;20238;-66
2021/03/16 00:09:34;;;;;;;27.13;11.80;;;5.20;99.90;;;;;;5113448;28;20194;-66
2021/03/16 00:12:00;;;;;;;27.43;11.43;;;5.20;99.90;;;;;;5113155;28;20167;-66
2021/03/16 00:14:25;;;;;;;36.23;13.07;;;5.30;99.90;;;;;;5113480;28;20645;-66
2021/03/16 00:16:51;;;;;;;29.93;12.50;;;5.30;99.90;;;;;;5113128;28;20223;-66
2021/03/16 00:19:18;;;;;;;33.07;14.30;;;5.30;99.90;;;;;;5113209;28;20166;-66
2021/03/16 00:21:44;;;;;;;35.67;16.83;;;5.30;99.90;;;;;;5112368;28;20182;-66
2021/03/16 00:24:09;;;;;;;32.13;16.27;;;5.30;99.90;;;;;;5113140;28;20456;-66
2021/03/16 00:26:35;;;;;;;37.80;18.80;;;5.30;99.90;;;;;;5113149;28;20153;-66
2021/03/16 00:29:01;;;;;;;36.70;20.60;;;5.30;99.90;;;;;;5112956;28;20159;-66
2021/03/16 00:31:26;;;;;;;37.10;20.00;;;5.30;99.90;;;;;;5112382;28;20167;-66
2021/03/16 00:33:52;;;;;;;38.40;20.43;;;5.30;99.90;;;;;;5092570;28;20171;-66
2021/03/16 00:36:17;;;;;;;45.10;20.13;;;5.30;99.90;;;;;;5092642;28;20512;-66
2021/03/16 00:38:43;;;;;;;37.17;19.40;;;5.40;99.90;;;;;;5093265;28;20185;-66
2021/03/16 00:41:08;;;;;;;36.33;16.60;;;5.40;99.90;;;;;;5092960;28;20167;-66
2021/03/16 00:43:34;;;;;;;36.23;17.67;;;5.40;99.90;;;;;;5091034;28;20240;-66
2021/03/16 00:46:00;;;;;;;33.67;18.37;;;5.40;99.90;;;;;;5092469;28;20262;-66
2021/03/16 00:48:25;;;;;;;35.53;18.80;;;5.40;99.90;;;;;;5092477;28;20161;-66
2021/03/16 00:50:51;;;;;;;40.87;17.67;;;5.40;99.90;;;;;;5093595;28;20808;-66
2021/03/16 00:53:16;;;;;;;31.57;14.13;;;5.40;99.90;;;;;;5096263;28;20154;-66
2021/03/16 00:55:42;;;;;;;24.47;12.80;;;5.40;99.90;;;;;;5096863;28;20186;-66
2021/03/16 00:58:08;;;;;;;27.07;11.90;;;5.40;99.90;;;;;;5096118;28;20266;-66
2021/03/16 01:00:33;;;;;;;26.10;11.10;;;5.40;99.90;;;;;;5096020;28;20159;-66
2021/03/16 01:02:59;;;;;;;36.83;11.50;;;5.40;99.90;;;;;;5095978;28;20159;-66
2021/03/16 01:05:24;;;;;;;30.97;11.40;;;5.40;99.90;;;;;;5095923;28;20173;-66
2021/03/16 01:07:51;;;;;;;27.57;9.97;;;5.40;99.90;;;;;;5095822;28;20169;-66
2021/03/16 01:10:19;;;;;;;27.33;8.87;;;5.30;99.90;;;;;;5096062;28;20165;-66
2021/03/16 01:12:45;;;;;;;31.60;9.93;;;5.30;99.90;;;;;;5096254;28;20449;-66
2021/03/16 01:15:12;;;;;;;26.33;9.90;;;5.30;99.90;;;;;;5095720;28;20406;-66
2021/03/16 01:17:38;;;;;;;21.53;9.73;;;5.30;99.90;;;;;;5095904;28;20402;-66
2021/03/16 01:20:14;;;;;;;33.50;8.57;;;5.20;99.90;;;;;;5095905;28;20393;-66
2021/03/16 01:22:39;;;;;;;32.83;10.40;;;5.20;99.90;;;;;;5095454;28;20887;-66
2021/03/16 01:25:06;;;;;;;26.93;10.33;;;5.20;99.90;;;;;;5095423;28;20531;-66
2021/03/16 01:27:32;;;;;;;26.63;8.63;;;5.10;99.90;;;;;;5096320;28;20221;-66
2021/03/16 01:29:57;;;;;;;28.10;8.03;;;5.10;99.90;;;;;;5095333;28;20389;-66
2021/03/16 01:32:23;;;;;;;25.37;7.87;;;5.10;99.90;;;;;;5095523;28;20182;-66
2021/03/16 01:34:48;;;;;;;23.90;8.63;;;5.10;99.90;;;;;;5095367;28;20280;-66
2021/03/16 01:37:14;;;;;;;34.93;9.13;;;5.10;99.90;;;;;;5095339;28;20167;-66
2021/03/16 01:39:39;;;;;;;18.50;6.20;;;5.10;99.90;;;;;;5095299;28;20277;-66
2021/03/16 01:42:05;;;;;;;26.83;7.10;;;5.10;99.90;;;;;;5095432;28;20207;-66
2021/03/16 01:44:30;;;;;;;28.50;7.97;;;5.10;99.90;;;;;;5095466;28;20213;-66
2021/03/16 01:46:57;;;;;;;14.67;5.80;;;5.20;99.90;;;;;;5115678;28;20192;-66
2021/03/16 01:49:23;;;;;;;16.17;5.30;;;5.20;99.90;;;;;;5115551;27;20150;-66
2021/03/16 01:51:49;;;;;;;18.33;5.90;;;5.20;99.90;;;;;;5115332;28;20397;-66
2021/03/16 01:54:14;;;;;;;19.20;5.80;;;5.20;99.90;;;;;;5115429;28;20166;-66
2021/03/16 01:56:41;;;;;;;25.37;5.30;;;5.10;99.90;;;;;;5115299;28;20177;-66
2021/03/16 01:59:07;;;;;;;15.43;4.90;;;5.20;99.90;;;;;;5114066;28;20167;-66
2021/03/16 02:01:32;;;;;;;16.37;5.97;;;5.20;99.90;;;;;;5114573;28;20405;-66
2021/03/16 02:03:58;;;;;;;18.10;5.07;;;5.20;99.90;;;;;;5115092;28;20450;-66
2021/03/16 02:06:50;;;;;;;22.00;7.87;;;5.20;99.90;;;;;;5115050;28;20164;-66
2021/03/16 02:09:43;;;;;;;34.47;8.70;;;5.20;99.90;;;;;;5114202;28;20633;-66
2021/03/16 02:12:18;;;;;;;23.27;8.37;;;5.10;99.90;;;;;;5113954;28;20396;-66
2021/03/16 02:14:56;;;;;;;26.57;8.13;;;5.10;99.90;;;;;;5097699;28;20528;-66
2021/03/16 02:17:28;;;;;;;25.83;7.50;;;5.10;99.90;;;;;;5114845;28;20393;-66
2021/03/16 02:22:36;;;;;;;21.43;6.77;;;5.00;99.90;;;;;;5110862;27;20516;-65
2021/03/16 02:25:33;;;;;;;14.83;5.43;;;5.10;99.90;;;;;;5110821;28;20380;-65
2021/03/16 02:31:14;;;;;;;12.80;5.03;;;5.10;99.90;;;;;;5110889;27;20871;-65
2021/03/16 02:33:42;;;;;;;19.27;7.20;;;5.10;99.90;;;;;;5110762;28;20415;-65
2021/03/16 02:36:12;;;;;;;20.40;5.00;;;5.20;99.90;;;;;;5109952;28;20408;-65
2021/03/16 02:38:43;;;;;;;15.13;5.60;;;5.20;99.90;;;;;;5110646;28;20395;-65
2021/03/16 02:41:12;;;;;;;10.40;4.37;;;5.10;99.90;;;;;;5110799;28;20392;-65
2021/03/16 02:43:38;;;;;;;20.40;4.77;;;5.10;99.90;;;;;;5110790;28;20397;-65
2021/03/16 02:46:06;;;;;;;26.23;8.27;;;5.10;99.90;;;;;;5110463;28;20421;-65
2021/03/16 02:48:33;;;;;;;28.77;8.73;;;5.00;99.90;;;;;;5110810;28;20164;-65
2021/03/16 02:51:00;;;;;;;20.70;7.30;;;4.90;99.90;;;;;;5110545;28;20437;-65
2021/03/16 02:53:26;;;;;;;21.67;7.67;;;4.90;99.90;;;;;;5109630;28;20408;-65
2021/03/16 02:55:54;;;;;;;22.27;8.33;;;4.90;99.90;;;;;;5110636;28;20395;-65
2021/03/16 02:58:21;;;;;;;27.50;8.57;;;5.00;99.90;;;;;;5110393;28;20426;-65
2021/03/16 03:00:48;;;;;;;25.63;8.10;;;5.00;99.90;;;;;;5110356;28;20432;-65
2021/03/16 03:03:15;;;;;;;26.63;7.67;;;5.00;99.90;;;;;;5110436;28;20457;-65
2021/03/16 03:05:42;;;;;;;25.13;8.00;;;5.10;99.90;;;;;;5108936;28;20433;-65
2021/03/16 03:08:10;;;;;;;27.83;7.90;;;5.10;99.90;;;;;;5110347;28;20423;-65
2021/03/16 03:10:36;;;;;;;22.60;5.93;;;5.10;99.90;;;;;;5109267;28;20453;-65
2021/03/16 03:13:02;;;;;;;19.87;5.10;;;5.10;99.90;;;;;;5110221;28;20397;-65
2021/03/16 03:15:28;;;;;;;19.10;5.37;;;5.20;99.90;;;;;;5110189;28;20390;-65
2021/03/16 03:17:53;;;;;;;17.60;4.90;;;5.20;99.90;;;;;;5110094;28;20388;-65
2021/03/16 03:20:19;;;;;;;17.27;4.30;;;5.20;99.90;;;;;;5110091;28;20257;-65
2021/03/16 03:23:23;;;;;;;22.97;5.90;;;5.30;99.90;;;;;;5110167;28;20170;-65
2021/03/16 03:26:13;;;;;;;21.13;6.80;;;5.30;99.90;;;;;;5109331;28;20183;-65
2021/03/16 03:28:39;;;;;;;20.13;6.10;;;5.30;99.90;;;;;;5107933;28;20420;-65
2021/03/16 03:31:06;;;;;;;17.93;5.83;;;5.30;99.90;;;;;;5109600;28;20473;-65
2021/03/16 03:33:33;;;;;;;27.17;5.57;;;5.30;99.90;;;;;;5090228;28;20430;-65
2021/03/16 03:36:01;;;;;;;27.70;5.73;;;5.30;99.90;;;;;;5088203;28;20900;-65
2021/03/16 03:38:28;;;;;;;19.73;5.50;;;5.30;99.90;;;;;;5089290;28;20896;-65
2021/03/16 03:40:56;;;;;;;18.63;6.10;;;5.40;99.90;;;;;;5084011;28;20434;-65
2021/03/16 03:43:23;;;;;;;18.67;6.27;;;5.40;99.90;;;;;;5076032;28;20405;-65
2021/03/16 03:45:51;;;;;;;15.27;4.70;;;5.40;99.90;;;;;;5095399;28;20431;-65
2021/03/16 03:48:18;;;;;;;21.37;5.50;;;5.50;99.90;;;;;;5095219;28;20962;-65
2021/03/16 03:50:45;;;;;;;12.63;5.40;;;5.50;99.90;;;;;;5096186;28;20452;-64
2021/03/16 03:53:13;;;;;;;11.47;5.20;;;5.50;99.90;;;;;;5096234;28;20759;-65
2021/03/16 03:55:39;;;;;;;28.97;6.90;;;5.50;99.90;;;;;;5095807;28;20443;-65
2021/03/16 03:58:08;;;;;;;19.50;5.03;;;5.50;99.90;;;;;;5095614;28;20483;-65
2021/03/16 04:00:35;;;;;;;12.87;5.20;;;5.50;99.90;;;;;;5094670;28;20420;-65
2021/03/16 04:03:01;;;;;;;14.40;5.00;;;5.50;99.90;;;;;;5095520;28;20535;-65
2021/03/16 04:05:27;;;;;;;21.40;5.57;;;5.50;99.90;;;;;;5095539;28;20486;-64
2021/03/16 04:07:54;;;;;;;22.70;5.07;;;5.50;99.90;;;;;;5095478;28;20156;-64
2021/03/16 04:10:21;;;;;;;17.97;5.17;;;5.50;99.90;;;;;;5095780;28;20442;-64
2021/03/16 04:12:47;;;;;;;15.00;4.30;;;5.50;99.90;;;;;;5095307;28;20395;-65
2021/03/16 04:15:14;;;;;;;17.47;4.47;;;5.60;99.90;;;;;;5095330;28;20387;-65
2021/03/16 04:17:42;;;;;;;14.50;5.23;;;5.50;99.90;;;;;;5094679;28;20393;-65
2021/03/16 04:20:09;;;;;;;16.30;4.90;;;5.50;99.90;;;;;;5095309;28;20392;-65
2021/03/16 04:22:35;;;;;;;11.70;4.00;;;5.50;99.90;;;;;;5095126;28;20398;-65
2021/03/16 04:25:02;;;;;;;10.00;3.60;;;5.50;99.90;;;;;;5093973;28;20413;-65
2021/03/16 04:27:28;;;;;;;14.63;3.70;;;5.50;99.90;;;;;;5094051;28;20515;-64
2021/03/16 04:29:53;;;;;;;8.97;3.70;;;5.50;99.90;;;;;;5094836;28;20984;-64
2021/03/16 04:32:19;;;;;;;22.73;4.97;;;5.50;99.90;;;;;;5087066;28;20216;-64
2021/03/16 04:34:45;;;;;;;14.87;3.90;;;5.50;99.90;;;;;;5073972;28;20172;-64
2021/03/16 04:37:11;;;;;;;17.13;4.37;;;5.60;99.90;;;;;;5074929;28;20956;-64
2021/03/16 04:39:37;;;;;;;8.97;4.17;;;5.60;99.90;;;;;;5075001;28;20186;-64
2021/03/16 04:42:03;;;;;;;9.87;3.83;;;5.60;99.90;;;;;;5074860;28;20434;-64
2021/03/16 04:44:28;;;;;;;12.30;3.97;;;5.50;99.90;;;;;;5074735;28;20157;-64
2021/03/16 04:46:54;;;;;;;13.20;3.90;;;5.60;99.90;;;;;;5074630;28;20206;-64
2021/03/16 04:49:20;;;;;;;9.90;4.43;;;5.50;99.90;;;;;;5074499;28;20286;-64
2021/03/16 04:51:45;;;;;;;9.40;3.97;;;5.50;99.90;;;;;;5075326;28;20476;-64
2021/03/16 04:54:11;;;;;;;18.00;4.83;;;5.50;99.90;;;;;;5072360;28;20164;-64
2021/03/16 04:56:37;;;;;;;11.80;3.90;;;5.50;99.90;;;;;;5074267;28;20161;-64
2021/03/16 04:59:03;;;;;;;16.30;3.97;;;5.50;99.90;;;;;;5074438;28;20177;-64
2021/03/16 05:01:28;;;;;;;10.53;4.00;;;5.50;99.90;;;;;;5074152;28;20253;-65
2021/03/16 05:03:54;;;;;;;16.20;3.83;;;5.50;99.90;;;;;;5074466;28;20480;-65
2021/03/16 05:06:20;;;;;;;21.10;5.07;;;5.60;99.90;;;;;;5074233;28;20167;-65
2021/03/16 05:08:45;;;;;;;9.03;3.87;;;5.60;99.90;;;;;;5074890;28;20421;-64
2021/03/16 05:11:11;;;;;;;14.33;4.10;;;5.60;99.90;;;;;;5073861;28;20280;-65
2021/03/16 05:13:36;;;;;;;13.20;4.57;;;5.60;99.90;;;;;;5074077;28;20596;-65
2021/03/16 05:16:02;;;;;;;16.23;5.50;;;5.60;99.90;;;;;;5073913;28;20641;-64
2021/03/16 05:18:28;;;;;;;17.77;5.50;;;5.60;99.90;;;;;;5073897;28;20676;-64
2021/03/16 05:20:54;;;;;;;16.33;5.70;;;5.60;99.90;;;;;;5074064;28;20180;-64
2021/03/16 05:23:20;;;;;;;20.70;6.50;;;5.60;99.90;;;;;;5073683;28;20161;-64
2021/03/16 05:25:46;;;;;;;13.40;6.20;;;5.60;99.90;;;;;;5073185;28;20648;-64
2021/03/16 05:28:12;;;;;;;19.77;7.27;;;5.60;99.90;;;;;;5073554;28;20398;-64
2021/03/16 05:30:37;;;;;;;22.10;7.07;;;5.60;99.90;;;;;;5073426;28;20466;-64
2021/03/16 05:33:03;;;;;;;27.63;8.30;;;5.60;99.90;;;;;;5073501;28;20605;-65
2021/03/16 05:35:29;;;;;;;19.17;7.13;;;5.60;99.90;;;;;;5073890;28;20224;-65
2021/03/16 05:37:55;;;;;;;23.90;7.77;;;5.60;99.90;;;;;;5072322;28;20169;-65
2021/03/16 05:40:21;;;;;;;13.37;6.80;;;5.60;99.90;;;;;;5073756;28;20394;-64
2021/03/16 05:42:47;;;;;;;21.00;6.77;;;5.60;99.90;;;;;;5075342;28;20927;-64
2021/03/16 05:45:14;;;;;;;19.80;6.73;;;5.60;99.90;;;;;;5093572;28;20408;-64
2021/03/16 05:47:42;;;;;;;15.07;6.83;;;5.60;99.90;;;;;;5092344;28;20395;-64
2021/03/16 05:50:09;;;;;;;13.83;5.83;;;5.60;99.90;;;;;;5093857;28;20838;-65
2021/03/16 05:52:35;;;;;;;19.37;6.90;;;5.60;99.90;;;;;;5092618;28;20758;-65
2021/03/16 05:55:03;;;;;;;21.57;7.00;;;5.60;99.90;;;;;;5093403;28;20410;-64
2021/03/16 05:57:29;;;;;;;20.40;6.67;;;5.60;99.90;;;;;;5092370;28;20395;-65
2021/03/16 05:59:54;;;;;;;23.83;7.50;;;5.60;99.90;;;;;;5092590;28;20533;-65
2021/03/16 06:02:20;;;;;;;12.60;6.37;;;5.60;99.90;;;;;;5093476;28;20414;-65
2021/03/16 06:04:46;;;;;;;15.90;6.03;;;5.60;99.90;;;;;;5093523;28;20164;-65
2021/03/16 06:07:12;;;;;;;12.93;6.30;;;5.60;99.90;;;;;;5093403;28;20410;-65
2021/03/16 06:09:38;;;;;;;17.70;7.37;;;5.60;99.90;;;;;;5093295;28;20298;-64
2021/03/16 06:12:04;;;;;;;18.43;6.70;;;5.60;99.90;;;;;;5093188;28;20421;-65
2021/03/16 06:14:31;;;;;;;18.00;6.70;;;5.60;99.90;;;;;;5093253;28;20164;-65
2021/03/16 06:16:57;;;;;;;14.63;5.90;;;5.60;99.90;;;;;;5091350;28;20410;-65
2021/03/16 06:19:39;;;;;;;16.33;6.97;;;5.70;99.90;;;;;;5092241;28;20398;-65
2021/03/16 06:22:07;;;;;;;17.33;6.00;;;5.70;99.90;;;;;;5093447;28;20395;-65
2021/03/16 06:24:44;;;;;;;19.07;5.30;;;5.70;99.90;;;;;;5093381;28;20898;-65
2021/03/16 06:27:21;;;;;;;15.70;5.60;;;5.80;99.90;;;;;;5093084;28;20398;-65
2021/03/16 06:29:47;;;;;;;19.43;6.50;;;5.80;99.90;;;;;;5093014;28;20458;-65
2021/03/16 06:32:12;;;;;;;13.40;6.13;;;5.80;99.90;;;;;;5086677;28;20790;-65
2021/03/16 06:34:38;;;;;;;12.40;6.00;;;5.80;99.90;;;;;;5073454;28;20172;-65
2021/03/16 06:37:04;;;;;;;27.40;7.30;;;5.90;99.90;;;;;;5073069;28;20523;-65
2021/03/16 06:39:30;;;;;;;13.57;6.63;;;5.90;99.90;;;;;;5071691;28;20214;-65
2021/03/16 06:41:55;;;;;;;23.63;7.30;;;5.80;99.90;;;;;;5072765;28;20229;-65
2021/03/16 06:44:22;;;;;;;15.77;7.20;;;5.90;99.90;;;;;;5071578;28;20166;-65
2021/03/16 06:46:54;;;;;;;21.30;7.30;;;5.80;99.90;;;;;;5071689;28;20212;-65
2021/03/16 06:49:21;;;;;;;20.27;7.40;;;5.90;99.90;;;;;;5071452;28;20444;-65
2021/03/16 06:51:48;;;;;;;15.53;6.70;;;5.90;99.90;;;;;;5072061;28;20820;-66
2021/03/16 06:54:16;;;;;;;21.90;6.70;;;6.00;99.90;;;;;;5072634;28;20897;-65
2021/03/16 06:56:58;;;;;;;18.40;7.80;;;5.90;99.90;;;;;;5072710;28;20409;-65
2021/03/16 06:59:26;;;;;;;10.10;5.20;;;5.90;99.90;;;;;;5072737;28;20796;-65
2021/03/16 07:01:52;;;;;;;19.10;5.77;;;5.90;99.90;;;;;;5073107;28;20534;-66
2021/03/16 07:04:20;;;;;;;15.43;6.13;;;5.90;99.90;;;;;;5072640;28;20866;-65
2021/03/16 07:06:46;;;;;;;15.47;6.90;;;5.90;99.90;;;;;;5072634;28;20404;-65
2021/03/16 07:09:13;;;;;;;20.67;6.37;;;6.00;99.90;;;;;;5072962;28;20561;-65
2021/03/16 07:11:41;;;;;;;14.57;6.47;;;6.00;99.90;;;;;;5072613;28;20427;-64
2021/03/16 07:14:07;;;;;;;13.20;5.97;;;5.90;99.90;;;;;;5072693;28;20400;-64
2021/03/16 07:16:35;;;;;;;18.60;5.30;;;5.90;99.90;;;;;;5074091;28;20392;-64
2021/03/16 07:19:04;;;;;;;13.33;6.30;;;5.90;99.90;;;;;;5075281;28;20425;-64
2021/03/16 07:21:37;;;;;;;18.83;7.47;;;6.00;99.90;;;;;;5076267;28;20405;-64
2021/03/16 07:24:07;;;;;;;26.03;9.07;;;6.10;99.90;;;;;;5075208;28;20447;-64
2021/03/16 07:26:32;;;;;;;18.43;6.53;;;6.20;99.90;;;;;;5077124;28;20826;-64
2021/03/16 07:28:58;;;;;;;16.43;6.20;;;6.30;99.90;;;;;;5076085;28;20488;-64
2021/03/16 07:31:25;;;;;;;20.07;10.67;;;6.40;99.90;;;;;;5075952;28;20519;-64
2021/03/16 07:33:52;;;;;;;16.60;7.50;;;6.40;99.90;;;;;;5075935;28;20476;-65
2021/03/16 07:36:17;;;;;;;11.43;5.00;;;6.50;99.90;;;;;;5075874;28;20395;-64
2021/03/16 07:38:44;;;;;;;17.80;7.60;;;6.50;99.90;;;;;;5075834;28;20935;-65
2021/03/16 07:41:10;;;;;;;19.03;9.47;;;6.50;99.90;;;;;;5075793;28;20159;-65
2021/03/16 07:43:38;;;;;;;17.93;8.60;;;6.60;99.90;;;;;;5094234;28;20423;-64
2021/03/16 07:46:16;;;;;;;15.00;8.97;;;6.50;99.90;;;;;;5095977;28;20471;-64
2021/03/16 07:48:52;;;;;;;19.43;10.33;;;6.60;99.90;;;;;;5095885;28;20862;-64
2021/03/16 07:51:19;;;;;;;21.13;11.70;;;6.60;99.90;;;;;;5096031;28;20872;-64
2021/03/16 07:54:03;;;;;;;33.60;11.77;;;6.60;99.90;;;;;;5096295;28;20393;-64
2021/03/16 07:56:32;;;;;;;18.47;10.63;;;6.70;99.90;;;;;;5095911;28;20400;-64
2021/03/16 07:58:58;;;;;;;24.60;11.13;;;6.80;99.90;;;;;;5095108;28;20457;-64
2021/03/16 08:01:23;;;;;;;28.60;14.07;;;6.70;99.90;;;;;;5095961;28;20392;-64
2021/03/16 08:03:50;;;;;;;22.90;10.63;;;6.80;99.90;;;;;;5094382;28;20399;-64
2021/03/16 08:06:33;;;;;;;14.97;8.27;;;6.80;99.90;;;;;;5095847;28;20158;-65
2021/03/16 08:08:59;;;;;;;14.97;6.97;;;6.90;99.90;;;;;;5095613;28;20929;-64
2021/03/16 08:11:36;;;;;;;18.50;7.03;;;7.00;99.90;;;;;;5095830;28;20409;-64
2021/03/16 08:14:04;;;;;;;16.77;7.67;;;7.00;99.90;;;;;;5095458;28;20150;-64
2021/03/16 08:16:35;;;;;;;14.40;6.03;;;7.10;99.90;;;;;;5094582;28;20496;-64
2021/03/16 08:19:18;;;;;;;19.40;6.40;;;7.20;99.90;;;;;;5077272;28;20404;-64
2021/03/16 08:21:46;;;;;;;14.23;7.80;;;7.30;99.90;;;;;;5094427;28;20396;-65
2021/03/16 08:24:13;;;;;;;19.43;9.73;;;7.40;99.90;;;;;;5095298;28;20807;-65
2021/03/16 08:26:54;;;;;;;16.93;10.00;;;7.50;99.90;;;;;;5095522;28;20954;-65
2021/03/16 08:29:29;;;;;;;20.40;11.10;;;7.60;99.90;;;;;;5095306;28;20460;-65
2021/03/16 08:31:56;;;;;;;16.53;9.40;;;7.70;99.90;;;;;;5090274;28;20403;-65
2021/03/16 08:34:24;;;;;;;13.53;8.60;;;7.80;99.90;;;;;;5074223;28;20815;-65
2021/03/16 08:36:49;;;;;;;17.30;8.53;;;7.90;99.90;;;;;;5075876;28;20417;-65
2021/03/16 08:42:00;;;;;;;12.93;7.40;;;8.00;99.90;;;;;;5131238;27;20565;-65
2021/03/16 08:44:28;;;;;;;15.40;7.80;;;8.10;99.90;;;;;;5131463;28;20386;-65
2021/03/16 08:46:54;;;;;;;10.80;6.57;;;8.10;99.90;;;;;;5130964;28;20422;-65
2021/03/16 08:49:22;;;;;;;10.23;6.33;;;8.30;99.90;;;;;;5130011;28;20389;-65
2021/03/16 08:51:47;;;;;;;9.93;5.97;;;8.30;99.90;;;;;;5111208;28;20416;-65
2021/03/16 08:54:29;;;;;;;10.97;7.80;;;8.30;99.90;;;;;;5109758;28;20393;-65
2021/03/16 08:56:54;;;;;;;11.47;6.17;;;8.20;99.90;;;;;;5110729;28;20160;-65
2021/03/16 08:59:21;;;;;;;12.77;6.60;;;8.20;99.90;;;;;;5110629;28;20932;-65
2021/03/16 09:01:49;;;;;;;10.20;5.53;;;8.30;99.90;;;;;;5110583;28;20542;-65
2021/03/16 09:04:17;;;;;;;12.30;5.60;;;8.30;99.90;;;;;;5109565;28;20398;-65
2021/03/16 09:06:48;;;;;;;11.80;4.47;;;8.30;99.90;;;;;;5110081;28;20446;-65
2021/03/16 09:09:14;;;;;;;12.40;4.53;;;8.30;99.90;;;;;;5110631;28;20421;-65
2021/03/16 09:11:42;;;;;;;8.30;4.40;;;8.40;99.90;;;;;;5110662;28;20466;-65
2021/03/16 09:16:51;;;;;;;13.60;4.23;;;8.60;99.90;;;;;;5110972;27;20847;-65
2021/03/16 09:19:20;;;;;;;9.90;4.20;;;8.70;99.90;;;;;;5109747;28;20392;-65
2021/03/16 09:24:26;;;;;;;8.90;3.00;;;8.60;99.90;;;;;;5082039;27;20512;-65
2021/03/16 09:26:54;;;;;;;9.40;2.87;;;8.70;99.90;;;;;;5070401;28;20393;-65
2021/03/16 09:29:20;;;;;;;8.40;3.57;;;8.80;99.90;;;;;;5070616;28;20734;-65
2021/03/16 09:31:46;;;;;;;5.57;2.13;;;8.90;99.90;;;;;;5070147;28;20493;-65
2021/03/16 09:34:13;;;;;;;10.40;3.93;;;8.90;99.90;;;;;;5070226;28;20426;-65
2021/03/16 09:36:39;;;;;;;7.30;2.27;;;8.90;99.90;;;;;;5070621;28;20740;-65
2021/03/16 09:39:05;;;;;;;6.57;2.80;;;9.00;99.90;;;;;;5070318;28;20501;-65
2021/03/16 09:41:30;;;;;;;6.40;2.60;;;9.10;99.90;;;;;;5070159;28;20198;-65
2021/03/16 09:43:56;;;;;;;6.27;2.60;;;9.20;99.90;;;;;;5070031;28;20184;-65
2021/03/16 09:46:22;;;;;;;9.80;3.10;;;9.20;99.90;;;;;;5069909;28;20805;-65
2021/03/16 09:48:50;;;;;;;10.67;3.80;;;9.40;99.90;;;;;;5070359;28;20170;-65
2021/03/16 09:51:18;;;;;;;9.70;3.10;;;9.50;99.90;;;;;;5070169;28;20159;-65
2021/03/16 09:53:46;;;;;;;12.03;2.93;;;9.60;99.90;;;;;;5068635;28;20390;-65
2021/03/16 09:56:12;;;;;;;6.87;3.60;;;9.70;99.90;;;;;;5070160;28;20398;-65
2021/03/16 09:58:37;;;;;;;9.40;3.90;;;9.80;99.90;;;;;;5069640;28;20420;-65
2021/03/16 10:01:04;;;;;;;14.20;3.80;;;10.00;99.90;;;;;;5069641;28;20629;-65
2021/03/16 10:03:30;;;;;;;7.73;3.53;;;10.10;99.90;;;;;;5069573;28;20193;-65
2021/03/16 10:06:05;;;;;;;12.03;4.33;;;10.10;99.90;;;;;;5069800;28;20390;-65
2021/03/16 10:08:30;;;;;;;10.77;3.73;;;10.20;99.90;;;;;;5069812;28;20167;-65
2021/03/16 10:10:57;;;;;;;9.80;3.93;;;10.10;99.90;;;;;;5069826;28;20944;-65
2021/03/16 10:13:33;;;;;;;5.17;3.50;;;10.10;99.90;;;;;;5069410;28;20157;-65
2021/03/16 10:16:08;;;;;;;5.03;2.90;;;10.10;99.90;;;;;;5068397;28;20417;-65
2021/03/16 10:18:46;;;;;;;7.90;4.40;;;9.90;99.90;;;;;;5068519;28;20391;-65
2021/03/16 10:21:12;;;;;;;11.63;3.83;;;9.90;99.90;;;;;;5069303;28;20390;-65
2021/03/16 10:23:37;;;;;;;5.23;4.00;;;9.90;99.90;;;;;;5069091;28;20468;-65
2021/03/16 10:26:06;;;;;;;6.23;4.93;;;9.80;99.90;;;;;;5069097;28;20156;-65
2021/03/16 10:28:37;;;;;;;10.23;5.40;;;9.70;99.90;;;;;;5069109;28;20516;-65
2021/03/16 10:31:20;;;;;;;10.27;6.90;;;9.60;99.90;;;;;;5067851;28;20820;-65
2021/03/16 10:33:49;;;;;;;22.10;13.30;;;9.50;99.90;;;;;;5067178;28;20401;-65
2021/03/16 10:36:15;;;;;;;19.90;11.43;;;9.30;99.90;;;;;;5055048;28;20426;-65
2021/03/16 10:38:41;;;;;;;15.07;12.57;;;9.20;99.90;;;;;;5054096;28;20441;-65
2021/03/16 10:41:07;;;;;;;22.37;14.40;;;9.10;99.90;;;;;;5055924;28;20838;-65
2021/03/16 10:43:33;;;;;;;19.13;11.83;;;9.10;99.90;;;;;;5053924;28;20188;-65
2021/03/16 10:45:59;;;;;;;17.97;11.00;;;9.10;99.90;;;;;;5055488;28;20953;-65
2021/03/16 10:48:25;;;;;;;15.27;9.50;;;9.20;99.90;;;;;;5054632;28;20160;-65
2021/03/16 10:50:51;;;;;;;14.73;8.20;;;9.30;99.90;;;;;;5050004;28;20422;-65
2021/03/16 10:53:18;;;;;;;7.33;6.50;;;9.30;99.90;;;;;;5043118;28;20566;-65
2021/03/16 10:55:43;;;;;;;6.60;5.80;;;9.40;99.90;;;;;;5055103;28;20422;-65
2021/03/16 10:58:10;;;;;;;9.83;6.37;;;9.50;99.90;;;;;;5054119;28;20457;-65
2021/03/16 11:00:36;;;;;;;12.60;6.33;;;9.70;99.90;;;;;;5055715;28;20446;-65
2021/03/16 11:03:02;;;;;;;9.30;6.70;;;9.90;99.90;;;;;;5055311;28;20946;-65
2021/03/16 11:05:28;;;;;;;9.70;5.90;;;9.90;99.90;;;;;;5054986;28;20399;-65
2021/03/16 11:07:54;;;;;;;7.83;6.23;;;9.90;99.90;;;;;;5055416;28;20961;-65
2021/03/16 11:10:19;;;;;;;9.00;5.60;;;9.90;99.90;;;;;;5055383;28;20158;-65
2021/03/16 11:12:45;;;;;;;8.80;5.23;;;10.00;99.90;;;;;;5051566;28;20539;-65
2021/03/16 11:15:11;;;;;;;9.03;4.73;;;10.00;99.90;;;;;;5053581;28;20188;-66
2021/03/16 11:17:36;;;;;;;11.17;4.70;;;10.10;99.90;;;;;;5053642;28;20657;-66
2021/03/16 11:20:03;;;;;;;6.73;4.80;;;10.20;99.90;;;;;;5053015;28;20769;-65
2021/03/16 11:22:28;;;;;;;6.57;4.37;;;10.40;99.90;;;;;;5053272;28;20208;-65
2021/03/16 11:24:54;;;;;;;6.70;4.30;;;10.50;99.90;;;;;;5054943;28;20395;-66
2021/03/16 11:27:19;;;;;;;8.77;5.57;;;10.50;99.90;;;;;;5054888;28;20208;-66
2021/03/16 11:29:45;;;;;;;12.63;5.90;;;10.50;99.90;;;;;;5054744;28;20190;-66
2021/03/16 11:32:10;;;;;;;7.17;4.90;;;10.40;99.90;;;;;;5054659;28;20170;-66
2021/03/16 11:34:36;;;;;;;8.00;5.53;;;10.40;99.90;;;;;;5054966;28;20154;-65
2021/03/16 11:37:02;;;;;;;7.60;5.43;;;10.30;99.90;;;;;;5054769;28;20179;-65
2021/03/16 11:39:28;;;;;;;10.47;6.63;;;10.30;99.90;;;;;;5053383;28;20164;-65
2021/03/16 11:41:53;;;;;;;7.33;6.50;;;10.30;99.90;;;;;;5054561;28;21010;-64
2021/03/16 11:44:19;;;;;;;12.10;7.53;;;10.40;99.90;;;;;;5054714;28;20542;-64
2021/03/16 11:46:44;;;;;;;9.37;6.80;;;10.40;99.90;;;;;;5053375;28;20200;-65
2021/03/16 11:49:10;;;;;;;11.93;8.43;;;10.30;99.90;;;;;;5054642;28;20153;-65
2021/03/16 11:51:36;;;;;;;10.60;8.20;;;10.30;99.90;;;;;;5054394;28;20159;-64
2021/03/16 11:54:02;;;;;;;10.03;8.20;;;10.20;99.90;;;;;;5054248;28;20697;-64
2021/03/16 11:56:27;;;;;;;13.33;8.33;;;10.10;99.90;;;;;;5054291;28;20434;-64
2021/03/16 11:58:53;;;;;;;11.20;7.27;;;9.90;99.90;;;;;;5054606;28;20207;-65
2021/03/16 12:01:18;;;;;;;9.97;6.00;;;9.80;99.90;;;;;;5054122;28;20206;-65
2021/03/16 12:03:44;;;;;;;9.83;5.57;;;9.60;99.90;;;;;;5053941;28;20557;-65
2021/03/16 12:06:10;;;;;;;7.10;3.90;;;9.60;99.90;;;;;;5054042;28;20156;-65
2021/03/16 12:08:37;;;;;;;9.47;3.90;;;9.50;99.90;;;;;;5054264;28;20167;-65
2021/03/16 12:11:03;;;;;;;6.63;3.90;;;9.50;99.90;;;;;;5054367;28;20387;-65
2021/03/16 12:13:29;;;;;;;5.67;3.40;;;9.50;99.90;;;;;;5054026;28;20395;-65
2021/03/16 12:15:54;;;;;;;4.40;3.30;;;9.50;99.90;;;;;;5054184;28;20400;-65
2021/03/16 12:18:20;;;;;;;5.70;3.03;;;9.50;99.90;;;;;;5053760;28;20223;-65
2021/03/16 12:20:46;;;;;;;3.10;2.43;;;9.60;99.90;;;;;;5052479;28;20677;-65
2021/03/16 12:23:12;;;;;;;6.00;2.33;;;9.60;99.90;;;;;;5053688;28;20228;-65
2021/03/16 12:25:37;;;;;;;6.20;2.60;;;9.70;99.90;;;;;;5053720;28;20168;-64
2021/03/16 12:28:03;;;;;;;5.97;3.30;;;9.80;99.90;;;;;;5053909;28;20157;-65
2021/03/16 12:30:29;;;;;;;10.20;4.13;;;10.00;99.90;;;;;;5053310;28;20153;-66
2021/03/16 12:32:54;;;;;;;5.20;2.73;;;10.00;99.90;;;;;;5053441;28;20544;-65
2021/03/16 12:35:20;;;;;;;6.40;2.73;;;10.20;99.90;;;;;;5053548;28;20395;-64
2021/03/16 12:37:46;;;;;;;5.93;3.57;;;10.30;99.90;;;;;;5053401;28;20188;-64
2021/03/16 12:40:12;;;;;;;5.93;3.07;;;10.40;99.90;;;;;;5053522;28;20245;-65
2021/03/16 12:42:38;;;;;;;12.10;3.03;;;10.50;99.90;;;;;;5053679;28;20456;-65
2021/03/16 12:45:05;;;;;;;8.17;3.23;;;10.60;99.90;;;;;;5053754;28;20389;-65
2021/03/16 12:47:31;;;;;;;7.07;2.80;;;10.70;99.90;;;;;;5052036;28;20417;-64
2021/03/16 12:49:57;;;;;;;7.83;2.83;;;10.80;99.90;;;;;;5053680;28;20397;-64
2021/03/16 12:52:23;;;;;;;4.67;2.30;;;10.90;99.90;;;;;;5052126;28;20525;-65
2021/03/16 12:54:48;;;;;;;10.73;2.77;;;10.80;99.90;;;;;;5053729;28;20644;-64
2021/03/16 12:57:16;;;;;;;4.50;2.50;;;10.80;99.90;;;;;;5052184;28;20427;-64
2021/03/16 12:59:42;;;;;;;7.80;2.33;;;10.80;99.90;;;;;;5053307;28;20160;-65
2021/03/16 13:02:07;;;;;;;9.03;2.90;;;11.00;99.90;;;;;;5053148;28;20730;-64